createdAt,value
2023-04-09T00:03:04.737Z,100.00
2023-04-09T00:08:08.077Z,100.00
2023-04-09T00:13:11.311Z,100.00
2023-04-09T00:18:16.692Z,100.00
2023-04-09T00:23:20.677Z,100.00
2023-04-09T00:28:23.887Z,100.00
2023-04-09T00:33:28.475Z,100.00
2023-04-09T00:38:32.039Z,100.00
2023-04-09T00:43:34.948Z,100.00
2023-04-09T00:48:39.572Z,100.00
2023-04-09T00:53:43.929Z,100.00
2023-04-09T00:58:47.146Z,100.00
2023-04-09T01:03:52.282Z,100.00
2023-04-09T01:09:04.061Z,100.00
2023-04-09T01:14:21.198Z,99.35
2023-04-09T01:19:42.944Z,100.00
2023-04-09T01:24:58.285Z,100.00
2023-04-09T01:30:11.990Z,100.00
2023-04-09T01:35:15.756Z,100.00
2023-04-09T01:40:19.216Z,100.00
2023-04-09T01:45:24.265Z,100.00
2023-04-09T01:50:28.195Z,100.00
2023-04-09T01:55:31.204Z,100.00
2023-04-09T02:00:39.397Z,99.84
2023-04-09T02:05:47.877Z,99.95
2023-04-09T02:10:55.705Z,100.00
2023-04-09T02:16:01.492Z,100.00
2023-04-09T02:21:05.881Z,100.00
2023-04-09T02:26:08.838Z,100.00
2023-04-09T02:31:13.168Z,100.00
2023-04-09T02:36:16.219Z,100.00
2023-04-09T02:41:19.184Z,100.00
2023-04-09T02:46:23.521Z,100.00
2023-04-09T02:51:27.402Z,100.00
2023-04-09T02:56:30.415Z,100.00
2023-04-09T03:01:35.232Z,100.00
2023-04-09T03:06:38.311Z,100.00
2023-04-09T03:11:41.308Z,100.00
2023-04-09T03:16:48.839Z,100.00
2023-04-09T03:21:52.034Z,100.00
2023-04-09T03:27:00.129Z,100.00
2023-04-09T03:32:05.574Z,100.00
2023-04-09T03:37:11.006Z,100.00
2023-04-09T03:42:14.502Z,100.00
2023-04-09T03:47:24.397Z,100.00
2023-04-09T03:52:28.717Z,100.00
2023-04-09T03:57:37.893Z,100.00
2023-04-09T04:02:48.880Z,100.00
2023-04-09T04:07:53.801Z,100.00
2023-04-09T04:13:03.536Z,100.00
2023-04-09T04:18:23.471Z,100.00
2023-04-09T04:23:29.471Z,100.00
2023-04-09T04:28:47.829Z,100.00
2023-04-09T04:34:04.091Z,100.00
2023-04-09T04:39:10.743Z,100.00
2023-04-09T04:44:29.189Z,100.00
2023-04-09T04:49:45.557Z,100.00
2023-04-09T04:54:49.729Z,100.00
2023-04-09T05:00:00.156Z,100.00
2023-04-09T05:05:05.477Z,100.00
2023-04-09T05:10:14.574Z,100.00
2023-04-09T05:15:19.478Z,100.00
2023-04-09T05:20:24.937Z,100.00
2023-04-09T05:25:42.144Z,100.00
2023-04-09T05:30:52.619Z,100.00
2023-04-09T05:35:57.490Z,100.00
2023-04-09T05:41:00.798Z,100.00
2023-04-09T05:46:04.102Z,98.36
2023-04-09T05:51:09.612Z,98.75
2023-04-09T05:56:16.616Z,96.67
2023-04-09T06:01:38.587Z,94.07
2023-04-09T06:06:43.072Z,95.16
2023-04-09T06:11:46.168Z,94.69
2023-04-09T06:16:49.706Z,94.31
2023-04-09T06:21:54.217Z,96.49
2023-04-09T06:26:57.246Z,98.19
2023-04-09T06:32:00.657Z,98.50
2023-04-09T06:37:05.114Z,95.79
2023-04-09T06:42:08.421Z,95.37
2023-04-09T06:47:24.903Z,93.96
2023-04-09T06:52:29.343Z,94.35
2023-04-09T06:57:32.306Z,94.61
2023-04-09T07:02:35.701Z,94.29
2023-04-09T07:07:40.339Z,95.98
2023-04-09T07:12:43.471Z,93.96
2023-04-09T07:17:46.553Z,95.52
2023-04-09T07:22:51.384Z,95.57
2023-04-09T07:27:54.362Z,96.02
2023-04-09T07:32:59.190Z,95.31
2023-04-09T07:38:03.664Z,94.66
2023-04-09T07:43:07.595Z,93.68
2023-04-09T07:48:10.947Z,92.97
2023-04-09T07:53:15.645Z,91.78
2023-04-09T07:58:18.666Z,90.89
2023-04-09T08:03:22.845Z,90.23
2023-04-09T08:08:27.697Z,88.63
2023-04-09T08:13:31.158Z,87.16
2023-04-09T08:18:34.253Z,86.15
2023-04-09T08:23:38.877Z,83.01
2023-04-09T08:28:42.042Z,81.06
2023-04-09T08:33:45.075Z,81.12
2023-04-09T08:38:49.907Z,81.39
2023-04-09T08:43:58.298Z,81.38
2023-04-09T08:49:02.060Z,80.46
2023-04-09T08:54:06.568Z,82.55
2023-04-09T08:59:10.888Z,81.20
2023-04-09T09:04:13.964Z,83.27
2023-04-09T09:09:19.079Z,86.44
2023-04-09T09:14:22.147Z,84.87
2023-04-09T09:19:33.549Z,85.62
2023-04-09T09:24:49.224Z,84.33
2023-04-09T09:29:53.268Z,85.09
2023-04-09T09:35:02.577Z,85.59
2023-04-09T09:40:09.055Z,85.63
2023-04-09T09:45:19.377Z,84.65
2023-04-09T09:50:25.673Z,84.80
2023-04-09T09:55:32.642Z,84.72
2023-04-09T10:00:38.461Z,83.55
2023-04-09T10:05:43.578Z,84.78
2023-04-09T10:10:48.655Z,83.20
2023-04-09T10:15:53.344Z,83.03
2023-04-09T10:21:01.270Z,81.54
2023-04-09T10:26:08.668Z,80.52
2023-04-09T10:31:12.168Z,80.42
2023-04-09T10:36:15.768Z,80.55
2023-04-09T10:41:26.390Z,79.15
2023-04-09T10:46:36.476Z,78.74
2023-04-09T10:51:40.438Z,79.77
2023-04-09T10:57:13.748Z,78.26
2023-04-09T11:02:50.174Z,76.35
2023-04-09T11:07:59.326Z,76.63
2023-04-09T11:13:07.346Z,77.29
2023-04-09T11:18:12.104Z,77.32
2023-04-09T11:23:19.150Z,76.86
2023-04-09T11:28:24.734Z,75.32
2023-04-09T11:33:33.302Z,74.97
2023-04-09T11:38:39.382Z,75.79
2023-04-09T11:43:44.186Z,75.59
2023-04-09T11:48:48.774Z,72.23
2023-04-09T11:53:52.314Z,78.14
2023-04-09T11:58:56.795Z,76.52
2023-04-09T12:04:00.978Z,75.76
2023-04-09T12:09:04.637Z,80.50
2023-04-09T12:14:15.271Z,73.17
2023-04-09T12:19:19.345Z,76.19
2023-04-09T12:24:25.967Z,71.21
2023-04-09T12:29:30.664Z,74.50
2023-04-09T12:34:33.717Z,73.86
2023-04-09T12:39:36.892Z,72.29
2023-04-09T12:44:41.720Z,76.21
2023-04-09T12:49:46.807Z,77.57
2023-04-09T12:54:52.269Z,81.85
2023-04-09T12:59:58.997Z,79.49
2023-04-09T13:05:02.255Z,78.81
2023-04-09T13:10:06.178Z,75.60
2023-04-09T13:15:11.943Z,75.52
2023-04-09T13:20:18.150Z,75.39
2023-04-09T13:25:21.381Z,77.72
2023-04-09T13:30:25.818Z,79.14
2023-04-09T13:35:28.935Z,79.40
2023-04-09T13:40:32.102Z,78.53
2023-04-09T13:45:37.544Z,78.56
2023-04-09T13:50:40.910Z,82.19
2023-04-09T13:55:45.598Z,78.49
2023-04-09T14:00:51.681Z,79.76
2023-04-09T14:05:54.690Z,81.67
2023-04-09T14:10:57.962Z,79.67
2023-04-09T14:16:02.641Z,79.96
2023-04-09T14:21:08.657Z,80.48
2023-04-09T14:26:13.131Z,79.88
2023-04-09T14:31:22.896Z,78.81
2023-04-09T14:36:27.370Z,80.34
2023-04-09T14:41:30.522Z,82.35
2023-04-09T14:46:35.637Z,81.23
2023-04-09T14:51:39.001Z,80.48
2023-04-09T14:56:42.363Z,81.48
2023-04-09T15:01:47.631Z,79.63
2023-04-09T15:06:52.250Z,71.44
2023-04-09T15:11:59.810Z,70.97
2023-04-09T15:17:04.875Z,78.61
2023-04-09T15:22:08.038Z,82.79
2023-04-09T15:27:12.109Z,81.92
2023-04-09T15:32:16.747Z,81.32
2023-04-09T15:37:19.936Z,78.86
2023-04-09T15:42:24.931Z,78.20
2023-04-09T15:47:31.911Z,75.66
2023-04-09T15:52:36.450Z,80.44
2023-04-09T15:57:52.749Z,75.87
2023-04-09T16:03:02.291Z,79.37
2023-04-09T16:08:06.342Z,82.06
2023-04-09T16:13:09.567Z,79.23
2023-04-09T16:18:14.044Z,80.59
2023-04-09T16:23:20.188Z,80.71
2023-04-09T16:28:23.234Z,80.23
2023-04-09T16:33:27.621Z,79.30
2023-04-09T16:38:31.355Z,80.43
2023-04-09T16:43:37.008Z,79.78
2023-04-09T16:48:41.985Z,80.54
2023-04-09T16:53:45.104Z,81.04
2023-04-09T16:58:49.967Z,80.24
2023-04-09T17:03:54.609Z,79.37
2023-04-09T17:08:57.928Z,79.77
2023-04-09T17:14:01.244Z,81.42
2023-04-09T17:19:05.893Z,80.06
2023-04-09T17:24:08.987Z,82.50
2023-04-09T17:29:12.383Z,81.54
2023-04-09T17:34:20.924Z,81.09
2023-04-09T17:39:29.236Z,80.68
2023-04-09T17:44:35.432Z,81.80
2023-04-09T17:49:40.372Z,81.45
2023-04-09T17:54:45.393Z,82.42
2023-04-09T17:59:49.065Z,82.34
2023-04-09T18:04:53.944Z,80.75
2023-04-09T18:09:57.207Z,82.04
2023-04-09T18:15:00.220Z,81.54
2023-04-09T18:20:04.887Z,80.74
2023-04-09T18:25:08.752Z,80.90
2023-04-09T18:30:12.363Z,81.29
2023-04-09T18:35:17.442Z,81.32
2023-04-09T18:40:20.732Z,81.48
2023-04-09T18:45:24.080Z,81.63
2023-04-09T18:50:28.712Z,81.53
2023-04-09T18:55:31.896Z,81.67
2023-04-09T19:00:35.126Z,81.86
2023-04-09T19:05:39.765Z,82.02
2023-04-09T19:10:42.782Z,82.54
2023-04-09T19:15:46.065Z,81.98
2023-04-09T19:20:51.031Z,82.83
2023-04-09T19:25:55.398Z,83.32
2023-04-09T19:31:02.710Z,82.75
2023-04-09T19:36:08.733Z,82.71
2023-04-09T19:41:11.844Z,83.00
2023-04-09T19:46:14.890Z,83.17
2023-04-09T19:51:20.186Z,83.08
2023-04-09T19:56:23.342Z,83.27
2023-04-09T20:01:26.737Z,83.18
2023-04-09T20:06:31.801Z,83.25
2023-04-09T20:11:35.539Z,83.23
2023-04-09T20:16:40.883Z,83.44
2023-04-09T20:21:45.286Z,83.46
2023-04-09T20:26:48.815Z,83.35
2023-04-09T20:31:52.004Z,83.68
2023-04-09T20:36:56.835Z,83.17
2023-04-09T20:42:00.380Z,82.97
2023-04-09T20:47:03.516Z,83.04
2023-04-09T20:52:09.546Z,83.28
2023-04-09T20:57:14.060Z,83.49
2023-04-09T21:02:18.054Z,83.82
2023-04-09T21:07:22.939Z,84.31
2023-04-09T21:12:28.028Z,84.72
2023-04-09T21:17:32.945Z,84.63
2023-04-09T21:22:37.465Z,84.67
2023-04-09T21:27:40.988Z,84.96
2023-04-09T21:32:44.011Z,85.28
2023-04-09T21:37:48.713Z,84.94
2023-04-09T21:42:52.489Z,84.88
2023-04-09T21:47:55.821Z,84.93
2023-04-09T21:53:00.714Z,84.85
2023-04-09T21:58:04.021Z,84.62
2023-04-09T22:03:07.336Z,84.57
2023-04-09T22:08:13.250Z,84.55
2023-04-09T22:13:16.595Z,84.65
2023-04-09T22:18:19.676Z,84.59
2023-04-09T22:23:24.148Z,84.37
2023-04-09T22:28:27.793Z,84.42
2023-04-09T22:33:30.872Z,84.40
2023-04-09T22:38:36.132Z,84.57
2023-04-09T22:43:39.093Z,84.58
2023-04-09T22:48:44.887Z,84.23
2023-04-09T22:53:52.014Z,84.42
2023-04-09T22:58:55.217Z,84.65
2023-04-09T23:03:58.569Z,84.11
2023-04-09T23:09:03.238Z,84.50
2023-04-09T23:14:06.539Z,84.38
2023-04-09T23:19:09.631Z,84.74
2023-04-09T23:24:14.050Z,84.75
2023-04-09T23:29:17.123Z,84.91
2023-04-09T23:34:20.399Z,85.07
2023-04-09T23:39:25.146Z,85.04
2023-04-09T23:44:28.562Z,84.89
2023-04-09T23:49:31.744Z,84.86
2023-04-09T23:54:36.290Z,85.32
2023-04-09T23:59:39.315Z,85.21
